Time;durP1;ratioP1;P1;durP2;ratioP2;P2;SDS_P1;SDS_P2;PMS_P1;PMS_P2;Temp;Humidity;BMP_temperature;BMP_pressure;BME280_temperature;BME280_humidity;BME280_pressure;Samples;Min_cycle;Max_cycle;Signal;HPM_P1;HPM_P2
2023/02/04 00:01:44;;;;;;;71.70;8.60;;;;;;;;;;5099690;27;20028;-70
2023/02/04 00:04:13;;;;;;;73.63;9.85;;;;;;;;;;5083385;27;20046;-70
2023/02/04 00:06:39;;;;;;;71.60;8.95;;;;;;;;;;5097530;27;20066;-70
2023/02/04 00:09:06;;;;;;;59.92;9.23;;;;;;;;;;5102584;27;20103;-70
2023/02/04 00:11:32;;;;;;;74.03;10.73;;;;;;;;;;5097814;28;20046;-69
2023/02/04 00:13:58;;;;;;;66.20;9.65;;;;;;;;;;5080513;28;20047;-70
2023/02/04 00:16:24;;;;;;;60.25;8.20;;;;;;;;;;5080497;28;20597;-70
2023/02/04 00:18:50;;;;;;;74.97;12.48;;;;;;;;;;5095403;27;20036;-70
2023/02/04 00:21:17;;;;;;;65.55;9.65;;;;;;;;;;5079985;28;20051;-70
2023/02/04 00:23:43;;;;;;;72.97;11.73;;;;;;;;;;5098001;27;20044;-70
2023/02/04 00:26:09;;;;;;;61.50;7.82;;;;;;;;;;5078520;28;20063;-70
2023/02/04 00:28:35;;;;;;;57.38;8.18;;;;;;;;;;5098178;27;20467;-70
2023/02/04 00:31:01;;;;;;;62.80;10.68;;;;;;;;;;5098038;27;20089;-69
2023/02/04 00:33:28;;;;;;;47.60;7.47;;;;;;;;;;5095646;27;20105;-69
2023/02/04 00:35:54;;;;;;;56.67;8.38;;;;;;;;;;5097993;27;20070;-69
2023/02/04 00:38:21;;;;;;;59.58;8.68;;;;;;;;;;5094112;28;20047;-69
2023/02/04 00:40:48;;;;;;;60.60;8.98;;;;;;;;;;5095622;28;20537;-69
2023/02/04 00:43:14;;;;;;;51.75;8.27;;;;;;;;;;5094265;28;20389;-69
2023/02/04 00:45:40;;;;;;;78.10;9.98;;;;;;;;;;5096352;28;20220;-70
2023/02/04 00:48:06;;;;;;;53.67;9.82;;;;;;;;;;5095360;28;20057;-70
2023/02/04 00:50:35;;;;;;;47.30;8.40;;;;;;;;;;5097988;28;20051;-70
2023/02/04 00:53:01;;;;;;;61.15;7.45;;;;;;;;;;5076760;28;20487;-70
2023/02/04 00:55:27;;;;;;;52.00;9.05;;;;;;;;;;5095957;28;20067;-69
2023/02/04 00:57:53;;;;;;;55.28;7.93;;;;;;;;;;5097197;28;20122;-70
2023/02/04 01:00:19;;;;;;;50.50;9.20;;;;;;;;;;5097030;28;20044;-69
2023/02/04 01:02:46;;;;;;;57.90;8.73;;;;;;;;;;5081397;28;20487;-70
2023/02/04 01:05:12;;;;;;;60.78;8.70;;;;;;;;;;5082037;28;20138;-69
2023/02/04 01:07:38;;;;;;;49.58;7.38;;;;;;;;;;5098634;28;20139;-69
2023/02/04 01:10:04;;;;;;;61.03;9.43;;;;;;;;;;5096759;28;20702;-70
2023/02/04 01:12:30;;;;;;;52.60;8.98;;;;;;;;;;5076319;28;20079;-69
2023/02/04 01:14:57;;;;;;;54.25;8.48;;;;;;;;;;5096367;28;20143;-70
2023/02/04 01:17:23;;;;;;;60.17;7.70;;;;;;;;;;5094991;28;20505;-70
2023/02/04 01:19:49;;;;;;;45.38;6.90;;;;;;;;;;5076275;28;20050;-69
2023/02/04 01:22:15;;;;;;;53.40;8.20;;;;;;;;;;5091338;28;20487;-69
2023/02/04 01:24:42;;;;;;;48.90;7.35;;;;;;;;;;5094605;28;20056;-70
2023/02/04 01:27:08;;;;;;;60.40;7.15;;;;;;;;;;5076172;28;20039;-69
2023/02/04 01:29:34;;;;;;;59.17;8.90;;;;;;;;;;5095546;28;20075;-70
2023/02/04 01:32:00;;;;;;;54.40;8.88;;;;;;;;;;5096752;28;20040;-70
2023/02/04 01:34:26;;;;;;;47.67;7.07;;;;;;;;;;5093622;28;20574;-70
2023/02/04 01:36:52;;;;;;;51.05;8.23;;;;;;;;;;5094093;28;20038;-70
2023/02/04 01:39:19;;;;;;;50.70;7.53;;;;;;;;;;5098831;28;20046;-70
2023/02/04 01:41:45;;;;;;;55.55;8.23;;;;;;;;;;5094998;28;20151;-70
2023/02/04 01:44:11;;;;;;;65.78;8.95;;;;;;;;;;5099062;28;20051;-69
2023/02/04 01:46:37;;;;;;;50.85;8.07;;;;;;;;;;5095402;28;20563;-70
2023/02/04 01:49:04;;;;;;;49.47;7.93;;;;;;;;;;5076144;28;20035;-70
2023/02/04 01:51:31;;;;;;;61.95;9.18;;;;;;;;;;5076556;28;20478;-70
2023/02/04 01:53:58;;;;;;;74.28;10.00;;;;;;;;;;5076791;28;20035;-69
2023/02/04 01:56:25;;;;;;;45.17;6.90;;;;;;;;;;5075672;28;20359;-70
2023/02/04 01:58:52;;;;;;;48.88;7.05;;;;;;;;;;5094090;28;20907;-70
2023/02/04 02:01:36;;;;;;;46.55;7.57;;;;;;;;;;5074913;28;20502;-69
2023/02/04 02:04:02;;;;;;;58.45;7.68;;;;;;;;;;5093700;28;20127;-69
2023/02/04 02:06:28;;;;;;;60.30;8.38;;;;;;;;;;5094219;28;20048;-69
2023/02/04 02:08:55;;;;;;;55.15;7.68;;;;;;;;;;5077937;28;20481;-69
2023/02/04 02:11:21;;;;;;;60.40;7.65;;;;;;;;;;5091615;28;20070;-70
2023/02/04 02:13:47;;;;;;;65.45;8.77;;;;;;;;;;5079839;28;20052;-69
2023/02/04 02:16:13;;;;;;;63.65;8.07;;;;;;;;;;5095921;28;20036;-70
2023/02/04 02:18:39;;;;;;;51.40;7.10;;;;;;;;;;5080623;28;20698;-69
2023/02/04 02:21:08;;;;;;;64.38;8.32;;;;;;;;;;5094297;28;20064;-69
2023/02/04 02:23:47;;;;;;;57.58;9.10;;;;;;;;;;5076247;28;20138;-70
2023/02/04 02:26:14;;;;;;;56.13;7.38;;;;;;;;;;5094289;28;20077;-69
2023/02/04 02:28:40;;;;;;;58.13;7.90;;;;;;;;;;5092716;28;20122;-70
2023/02/04 02:31:07;;;;;;;56.47;7.88;;;;;;;;;;5096599;28;20048;-69
2023/02/04 02:33:33;;;;;;;61.35;7.65;;;;;;;;;;5095258;28;20259;-70
2023/02/04 02:36:00;;;;;;;63.67;7.97;;;;;;;;;;5094748;28;20123;-69
2023/02/04 02:38:26;;;;;;;58.60;8.63;;;;;;;;;;5096739;28;20032;-69
2023/02/04 02:40:53;;;;;;;70.28;8.27;;;;;;;;;;5094792;28;20485;-70
2023/02/04 02:43:21;;;;;;;50.58;8.50;;;;;;;;;;5096016;28;20449;-70
2023/02/04 02:45:47;;;;;;;57.83;8.25;;;;;;;;;;5094611;28;20050;-70
2023/02/04 02:48:14;;;;;;;48.88;8.15;;;;;;;;;;5101047;28;20032;-69
2023/02/04 02:50:41;;;;;;;57.13;8.68;;;;;;;;;;5089578;28;20097;-70
2023/02/04 02:53:12;;;;;;;61.88;7.40;;;;;;;;;;5078798;28;20075;-70
2023/02/04 02:55:38;;;;;;;61.22;8.02;;;;;;;;;;5092354;28;20048;-69
2023/02/04 02:58:06;;;;;;;45.13;6.60;;;;;;;;;;5095096;28;20043;-70
2023/02/04 03:00:32;;;;;;;68.53;8.45;;;;;;;;;;5094765;28;20040;-69
2023/02/04 03:03:01;;;;;;;62.92;8.35;;;;;;;;;;5097232;28;20058;-69
2023/02/04 03:05:30;;;;;;;48.72;8.50;;;;;;;;;;5098131;28;20047;-70
2023/02/04 03:07:56;;;;;;;57.85;7.20;;;;;;;;;;5099751;28;20119;-70
2023/02/04 03:10:22;;;;;;;53.78;7.68;;;;;;;;;;5098539;28;20052;-70
2023/02/04 03:12:48;;;;;;;58.15;7.70;;;;;;;;;;5101813;28;20162;-70
2023/02/04 03:15:14;;;;;;;50.35;7.70;;;;;;;;;;5083492;28;20095;-69
2023/02/04 03:17:41;;;;;;;76.65;8.10;;;;;;;;;;5084841;28;20410;-69
2023/02/04 03:20:08;;;;;;;54.13;7.18;;;;;;;;;;5095296;28;20060;-70
2023/02/04 03:22:34;;;;;;;59.80;8.88;;;;;;;;;;5100219;28;20134;-70
2023/02/04 03:25:00;;;;;;;60.17;7.85;;;;;;;;;;5096638;28;20055;-69
2023/02/04 03:27:27;;;;;;;78.35;9.50;;;;;;;;;;5077787;28;20063;-69
2023/02/04 03:29:53;;;;;;;56.88;8.55;;;;;;;;;;5100087;28;20303;-70
2023/02/04 03:32:20;;;;;;;58.85;10.30;;;;;;;;;;5096264;28;20035;-70
2023/02/04 03:34:46;;;;;;;64.35;8.63;;;;;;;;;;5077796;28;20123;-69
2023/02/04 03:37:12;;;;;;;51.75;6.72;;;;;;;;;;5081008;28;20039;-71
2023/02/04 03:39:39;;;;;;;63.22;7.63;;;;;;;;;;5100957;28;20511;-69
2023/02/04 03:42:05;;;;;;;67.13;8.00;;;;;;;;;;5097473;28;20518;-69
2023/02/04 03:44:31;;;;;;;68.75;8.57;;;;;;;;;;5097623;28;20122;-69
2023/02/04 03:46:58;;;;;;;53.28;6.40;;;;;;;;;;5098781;28;20043;-69
2023/02/04 03:49:25;;;;;;;63.10;9.52;;;;;;;;;;5077602;28;20062;-69
2023/02/04 03:51:51;;;;;;;59.17;7.75;;;;;;;;;;5094401;28;20067;-69
2023/02/04 03:54:17;;;;;;;71.10;9.65;;;;;;;;;;5097449;28;20059;-69
2023/02/04 03:56:43;;;;;;;75.38;10.80;;;;;;;;;;5097364;28;20130;-69
2023/02/04 03:59:09;;;;;;;60.92;8.35;;;;;;;;;;5079732;28;20471;-69
2023/02/04 04:01:36;;;;;;;61.15;10.15;;;;;;;;;;5080459;28;20036;-69
2023/02/04 04:04:02;;;;;;;40.30;7.03;;;;;;;;;;5096217;28;20098;-69
2023/02/04 04:06:28;;;;;;;69.90;8.60;;;;;;;;;;5094432;28;20050;-69
2023/02/04 04:08:54;;;;;;;56.80;7.88;;;;;;;;;;5096705;28;20414;-69
2023/02/04 04:11:20;;;;;;;55.85;8.23;;;;;;;;;;5098365;28;20114;-69
2023/02/04 04:13:47;;;;;;;56.97;7.80;;;;;;;;;;5095550;28;20079;-69
2023/02/04 04:16:13;;;;;;;69.57;9.15;;;;;;;;;;5097865;28;20043;-69
2023/02/04 04:18:39;;;;;;;63.28;9.02;;;;;;;;;;5094422;28;20048;-69
2023/02/04 04:21:05;;;;;;;63.63;8.27;;;;;;;;;;5094429;28;20045;-69
2023/02/04 04:23:31;;;;;;;63.00;8.07;;;;;;;;;;5081009;28;20070;-69
2023/02/04 04:25:57;;;;;;;74.07;9.73;;;;;;;;;;5075674;28;20498;-69
2023/02/04 04:28:23;;;;;;;68.75;9.90;;;;;;;;;;5080221;28;20032;-69
2023/02/04 04:30:50;;;;;;;70.50;8.73;;;;;;;;;;5095257;28;20044;-69
2023/02/04 04:33:16;;;;;;;85.05;9.57;;;;;;;;;;5096015;28;20088;-69
2023/02/04 04:35:42;;;;;;;72.18;9.10;;;;;;;;;;5095668;28;20089;-69
2023/02/04 04:38:08;;;;;;;46.42;8.55;;;;;;;;;;5097453;28;20491;-69
2023/02/04 04:40:34;;;;;;;67.90;8.63;;;;;;;;;;5099442;28;20071;-69
2023/02/04 04:43:00;;;;;;;67.47;8.57;;;;;;;;;;5096161;28;20048;-68
2023/02/04 04:45:27;;;;;;;67.78;8.55;;;;;;;;;;5095776;28;20050;-69
2023/02/04 04:47:53;;;;;;;77.78;11.23;;;;;;;;;;5094602;28;20047;-69
2023/02/04 04:50:19;;;;;;;87.03;12.02;;;;;;;;;;5094993;28;20139;-69
2023/02/04 04:52:45;;;;;;;75.63;9.13;;;;;;;;;;5075182;28;20050;-69
2023/02/04 04:55:11;;;;;;;76.05;9.23;;;;;;;;;;5076551;28;20444;-70
2023/02/04 04:57:38;;;;;;;54.72;8.38;;;;;;;;;;5096284;28;20035;-70
2023/02/04 05:00:05;;;;;;;60.75;8.38;;;;;;;;;;5075408;28;20079;-69
2023/02/04 05:02:31;;;;;;;63.08;8.43;;;;;;;;;;5095387;28;20039;-70
2023/02/04 05:04:57;;;;;;;65.82;8.15;;;;;;;;;;5077912;28;20120;-69
2023/02/04 05:07:23;;;;;;;66.32;7.95;;;;;;;;;;5097394;28;20047;-70
2023/02/04 05:09:49;;;;;;;61.28;9.50;;;;;;;;;;5095766;28;20050;-69
2023/02/04 05:12:15;;;;;;;77.20;8.77;;;;;;;;;;5095342;28;20040;-69
2023/02/04 05:14:42;;;;;;;73.40;8.90;;;;;;;;;;5094120;28;20043;-69
2023/02/04 05:17:08;;;;;;;63.28;8.57;;;;;;;;;;5077635;28;20058;-69
2023/02/04 05:19:34;;;;;;;68.30;9.23;;;;;;;;;;5056968;28;20051;-69
2023/02/04 05:22:00;;;;;;;60.10;8.27;;;;;;;;;;5077964;28;20062;-69
2023/02/04 05:24:27;;;;;;;73.47;8.52;;;;;;;;;;5095815;28;20082;-69
2023/02/04 05:26:53;;;;;;;63.67;10.52;;;;;;;;;;5093830;28;20087;-69
2023/02/04 05:29:19;;;;;;;63.65;8.45;;;;;;;;;;5098810;28;20040;-69
2023/02/04 05:31:45;;;;;;;81.65;10.63;;;;;;;;;;5077437;28;20547;-69
2023/02/04 05:34:12;;;;;;;57.78;8.15;;;;;;;;;;5075712;28;20056;-69
2023/02/04 05:36:38;;;;;;;73.82;10.25;;;;;;;;;;5073027;28;20144;-69
2023/02/04 05:39:04;;;;;;;63.03;8.75;;;;;;;;;;5094483;28;20051;-69
2023/02/04 05:41:30;;;;;;;61.75;7.78;;;;;;;;;;5093443;28;20048;-69
2023/02/04 05:43:56;;;;;;;69.47;10.85;;;;;;;;;;5094412;28;20043;-69
2023/02/04 05:46:22;;;;;;;63.35;10.25;;;;;;;;;;5077041;28;20047;-69
2023/02/04 05:48:48;;;;;;;67.57;8.50;;;;;;;;;;5096883;28;20040;-69
2023/02/04 05:51:15;;;;;;;66.57;7.75;;;;;;;;;;5095111;28;20123;-69
2023/02/04 05:53:41;;;;;;;68.22;9.52;;;;;;;;;;5095839;28;20039;-69
2023/02/04 05:56:07;;;;;;;66.90;8.07;;;;;;;;;;5092659;28;20047;-69
2023/02/04 05:58:33;;;;;;;56.42;7.50;;;;;;;;;;5093165;28;20667;-69
2023/02/04 06:01:00;;;;;;;68.85;9.02;;;;;;;;;;5077603;28;20048;-69
2023/02/04 06:03:26;;;;;;;60.65;8.23;;;;;;;;;;5072082;28;20040;-69
2023/02/04 06:05:52;;;;;;;54.33;8.25;;;;;;;;;;5094065;28;20395;-69
2023/02/04 06:08:19;;;;;;;51.22;7.20;;;;;;;;;;5077326;28;20066;-69
2023/02/04 06:10:45;;;;;;;62.83;8.30;;;;;;;;;;5093223;28;20058;-69
2023/02/04 06:13:11;;;;;;;55.78;7.88;;;;;;;;;;5094874;28;20040;-69
2023/02/04 06:15:37;;;;;;;57.15;7.80;;;;;;;;;;5092525;28;20047;-69
2023/02/04 06:18:03;;;;;;;54.63;8.10;;;;;;;;;;5075892;28;20152;-69
2023/02/04 06:20:29;;;;;;;51.55;7.28;;;;;;;;;;5093665;28;20043;-69
2023/02/04 06:22:56;;;;;;;48.03;7.40;;;;;;;;;;5092022;28;20051;-69
2023/02/04 06:25:22;;;;;;;57.15;8.02;;;;;;;;;;5075744;28;20071;-70
2023/02/04 06:27:48;;;;;;;55.72;8.73;;;;;;;;;;5093005;28;20478;-69
2023/02/04 06:30:15;;;;;;;50.25;6.35;;;;;;;;;;5094845;28;20051;-69
2023/02/04 06:32:41;;;;;;;58.03;7.53;;;;;;;;;;5074026;28;20399;-69
2023/02/04 06:35:08;;;;;;;62.25;7.95;;;;;;;;;;5092280;28;20048;-69
2023/02/04 06:37:34;;;;;;;55.83;7.65;;;;;;;;;;5098792;28;20451;-69
2023/02/04 06:40:00;;;;;;;69.00;8.65;;;;;;;;;;5097993;28;20048;-69
2023/02/04 06:42:27;;;;;;;64.05;7.80;;;;;;;;;;5099657;28;20078;-69
2023/02/04 06:44:53;;;;;;;64.13;8.38;;;;;;;;;;5079296;28;20391;-79
2023/02/04 06:47:19;;;;;;;51.42;6.25;;;;;;;;;;5082799;28;20047;-69
2023/02/04 06:49:45;;;;;;;46.30;6.55;;;;;;;;;;5101279;28;20045;-68
2023/02/04 06:52:11;;;;;;;50.13;6.15;;;;;;;;;;5099360;28;20141;-69
2023/02/04 06:54:38;;;;;;;36.47;5.18;;;;;;;;;;5100058;28;21241;-67
2023/02/04 06:57:05;;;;;;;49.20;6.18;;;;;;;;;;5097763;28;20075;-69
2023/02/04 06:59:33;;;;;;;50.47;6.47;;;;;;;;;;5099495;28;20052;-69
2023/02/04 07:01:59;;;;;;;37.05;4.95;;;;;;;;;;5096847;28;20367;-69
2023/02/04 07:04:25;;;;;;;41.53;6.45;;;;;;;;;;5097501;28;20461;-69
2023/02/04 07:06:51;;;;;;;27.67;5.70;;;;;;;;;;5077468;28;20127;-68
2023/02/04 07:09:17;;;;;;;30.48;5.45;;;;;;;;;;5097839;28;20040;-69
2023/02/04 07:11:44;;;;;;;35.30;5.88;;;;;;;;;;5099633;28;20035;-69
2023/02/04 07:14:10;;;;;;;39.15;6.45;;;;;;;;;;5099204;28;20050;-69
2023/02/04 07:16:36;;;;;;;29.30;4.25;;;;;;;;;;5098965;28;20032;-68
2023/02/04 07:19:03;;;;;;;39.78;5.25;;;;;;;;;;5094532;28;20093;-69
2023/02/04 07:21:29;;;;;;;36.97;6.15;;;;;;;;;;5100008;28;20044;-69
2023/02/04 07:23:55;;;;;;;47.97;6.22;;;;;;;;;;5101655;28;20085;-69
2023/02/04 07:26:22;;;;;;;41.45;6.57;;;;;;;;;;5103332;28;20071;-68
2023/02/04 07:28:48;;;;;;;45.20;6.78;;;;;;;;;;5089571;28;20043;-68
2023/02/04 07:31:15;;;;;;;48.35;6.45;;;;;;;;;;5074980;28;20155;-68
2023/02/04 07:33:41;;;;;;;43.67;6.13;;;;;;;;;;5080480;28;20036;-68
2023/02/04 07:36:08;;;;;;;47.90;6.72;;;;;;;;;;5081484;28;20047;-69
2023/02/04 07:38:34;;;;;;;37.85;5.15;;;;;;;;;;5096125;28;20360;-69
2023/02/04 07:41:00;;;;;;;36.90;6.20;;;;;;;;;;5100103;28;20423;-68
2023/02/04 07:43:26;;;;;;;37.70;5.30;;;;;;;;;;5083296;28;20475;-67
2023/02/04 07:45:52;;;;;;;32.63;5.57;;;;;;;;;;5081477;28;20088;-66
2023/02/04 07:48:19;;;;;;;45.03;7.28;;;;;;;;;;5062468;28;20036;-67
2023/02/04 07:50:45;;;;;;;40.22;5.93;;;;;;;;;;5101924;28;20090;-67
2023/02/04 07:53:11;;;;;;;45.67;6.03;;;;;;;;;;5102755;28;20067;-67
2023/02/04 07:55:37;;;;;;;34.85;5.72;;;;;;;;;;5101518;28;20087;-67
2023/02/04 07:58:04;;;;;;;35.50;4.93;;;;;;;;;;5095779;28;20089;-67
2023/02/04 08:00:30;;;;;;;37.30;7.22;;;;;;;;;;5083042;28;20052;-67
2023/02/04 08:02:56;;;;;;;35.17;6.40;;;;;;;;;;5083563;28;20085;-67
2023/02/04 08:05:22;;;;;;;43.38;5.15;;;;;;;;;;5099499;28;20047;-67
2023/02/04 08:07:49;;;;;;;34.90;5.10;;;;;;;;;;5083972;28;20488;-67
2023/02/04 08:10:15;;;;;;;43.08;6.50;;;;;;;;;;5097977;28;20425;-67
2023/02/04 08:12:41;;;;;;;28.88;5.32;;;;;;;;;;5082005;28;20116;-67
2023/02/04 08:15:07;;;;;;;36.10;7.00;;;;;;;;;;5100355;28;20483;-67
2023/02/04 08:17:34;;;;;;;31.58;5.00;;;;;;;;;;5102293;28;20089;-68
2023/02/04 08:20:00;;;;;;;30.13;5.60;;;;;;;;;;5099356;28;20048;-67
2023/02/04 08:22:26;;;;;;;27.95;3.85;;;;;;;;;;5081126;28;20044;-67
2023/02/04 08:24:52;;;;;;;23.20;4.20;;;;;;;;;;5104173;28;20178;-67
2023/02/04 08:27:19;;;;;;;38.65;4.88;;;;;;;;;;5079283;28;20079;-67
2023/02/04 08:29:45;;;;;;;30.10;4.93;;;;;;;;;;5082867;28;20069;-67
2023/02/04 08:32:12;;;;;;;35.30;4.72;;;;;;;;;;5085231;28;20468;-67
2023/02/04 08:34:38;;;;;;;24.65;5.03;;;;;;;;;;5084477;28;20059;-67
2023/02/04 08:37:05;;;;;;;30.63;5.00;;;;;;;;;;5101822;28;20508;-67
2023/02/04 08:39:31;;;;;;;30.70;4.03;;;;;;;;;;5100105;28;20062;-67
2023/02/04 08:41:58;;;;;;;26.15;4.60;;;;;;;;;;5068758;28;20447;-67
2023/02/04 08:44:24;;;;;;;38.65;4.70;;;;;;;;;;5098447;28;20077;-69
2023/02/04 08:46:50;;;;;;;23.27;4.30;;;;;;;;;;5101332;28;20044;-69
2023/02/04 08:49:16;;;;;;;19.10;3.63;;;;;;;;;;5084771;28;20505;-69
2023/02/04 08:51:42;;;;;;;18.45;3.72;;;;;;;;;;5095756;28;20479;-69
2023/02/04 08:54:08;;;;;;;25.35;5.18;;;;;;;;;;5075189;28;20395;-69
2023/02/04 08:56:35;;;;;;;29.02;4.13;;;;;;;;;;5077285;28;20450;-69
2023/02/04 08:59:01;;;;;;;22.50;3.47;;;;;;;;;;5092142;28;20063;-69
2023/02/04 09:01:27;;;;;;;23.98;4.57;;;;;;;;;;5100262;28;20510;-69
2023/02/04 09:03:53;;;;;;;21.48;3.40;;;;;;;;;;5098290;28;20199;-69
2023/02/04 09:06:19;;;;;;;22.45;3.75;;;;;;;;;;5099836;28;20036;-69
2023/02/04 09:08:45;;;;;;;24.02;4.07;;;;;;;;;;5099901;28;20115;-69
2023/02/04 09:11:12;;;;;;;23.20;3.80;;;;;;;;;;5101058;28;20143;-69
2023/02/04 09:13:38;;;;;;;21.45;3.60;;;;;;;;;;5084399;28;21281;-69
2023/02/04 09:16:04;;;;;;;26.63;3.53;;;;;;;;;;5078640;28;20109;-69
2023/02/04 09:18:31;;;;;;;24.50;3.80;;;;;;;;;;5082951;28;20483;-69
2023/02/04 09:20:58;;;;;;;23.90;5.50;;;;;;;;;;5057591;28;20040;-69
2023/02/04 09:23:24;;;;;;;21.38;4.43;;;;;;;;;;5100675;28;20483;-67
2023/02/04 09:25:51;;;;;;;27.67;4.47;;;;;;;;;;5083470;28;20124;-67
2023/02/04 09:28:17;;;;;;;25.75;4.10;;;;;;;;;;5098851;28;20432;-67
2023/02/04 09:30:44;;;;;;;24.08;4.22;;;;;;;;;;5090800;28;20174;-67
2023/02/04 09:33:11;;;;;;;24.10;3.75;;;;;;;;;;5097645;28;20050;-68
2023/02/04 09:35:37;;;;;;;29.70;5.97;;;;;;;;;;5075858;28;20165;-68
2023/02/04 09:38:04;;;;;;;25.60;4.38;;;;;;;;;;5080325;28;20043;-68
2023/02/04 09:40:33;;;;;;;22.35;4.38;;;;;;;;;;5092547;28;20047;-68
2023/02/04 09:42:59;;;;;;;19.50;4.10;;;;;;;;;;5074702;28;20071;-68
2023/02/04 09:45:27;;;;;;;25.75;3.60;;;;;;;;;;5079629;28;20089;-67
2023/02/04 09:47:56;;;;;;;18.02;3.47;;;;;;;;;;5094278;28;20131;-68
2023/02/04 09:50:24;;;;;;;24.40;4.13;;;;;;;;;;5095713;28;20048;-67
2023/02/04 09:52:52;;;;;;;27.25;4.70;;;;;;;;;;5093090;28;20054;-67
2023/02/04 09:55:20;;;;;;;19.40;4.25;;;;;;;;;;5090443;28;20044;-67
2023/02/04 09:57:46;;;;;;;20.58;3.95;;;;;;;;;;5090667;28;20042;-67
2023/02/04 10:00:14;;;;;;;26.23;4.05;;;;;;;;;;5092175;28;20051;-67
2023/02/04 10:02:40;;;;;;;25.73;4.40;;;;;;;;;;5076225;28;20051;-68
2023/02/04 10:05:12;;;;;;;22.95;4.10;;;;;;;;;;5095905;28;20391;-67
2023/02/04 10:07:39;;;;;;;22.67;3.92;;;;;;;;;;5073895;28;20162;-67
2023/02/04 10:10:05;;;;;;;19.20;3.78;;;;;;;;;;5078673;28;20480;-69
2023/02/04 10:12:31;;;;;;;20.92;3.38;;;;;;;;;;5081611;28;20114;-76
2023/02/04 10:14:59;;;;;;;22.98;3.50;;;;;;;;;;5077859;28;20143;-67
2023/02/04 10:17:25;;;;;;;23.67;3.97;;;;;;;;;;5096266;28;20055;-67
2023/02/04 10:19:51;;;;;;;29.35;4.97;;;;;;;;;;5101331;28;20063;-67
2023/02/04 10:22:19;;;;;;;23.73;4.13;;;;;;;;;;5092684;28;20143;-68
2023/02/04 10:24:45;;;;;;;16.92;3.58;;;;;;;;;;5097183;28;20039;-67
2023/02/04 10:27:14;;;;;;;20.85;3.72;;;;;;;;;;5079182;28;20043;-67
2023/02/04 10:29:41;;;;;;;18.60;4.25;;;;;;;;;;5095397;28;20410;-67
2023/02/04 10:32:26;;;;;;;20.92;4.13;;;;;;;;;;5093279;28;20052;-67
2023/02/04 10:34:56;;;;;;;24.10;4.05;;;;;;;;;;5091758;28;20040;-67
2023/02/04 10:37:23;;;;;;;19.70;4.15;;;;;;;;;;5074246;28;20043;-69
2023/02/04 10:39:49;;;;;;;15.65;3.22;;;;;;;;;;5095376;28;20032;-69
2023/02/04 10:42:22;;;;;;;17.20;3.72;;;;;;;;;;5096130;28;20534;-69
2023/02/04 10:44:48;;;;;;;23.40;3.17;;;;;;;;;;5092707;28;20032;-66
2023/02/04 10:47:16;;;;;;;18.15;3.25;;;;;;;;;;5097022;28;20074;-69
2023/02/04 10:49:54;;;;;;;21.95;3.45;;;;;;;;;;5080755;28;20451;-69
2023/02/04 10:52:21;;;;;;;17.35;3.55;;;;;;;;;;5092944;28;20506;-69
2023/02/04 10:54:48;;;;;;;19.90;3.22;;;;;;;;;;5095997;28;20131;-69
2023/02/04 10:57:22;;;;;;;20.35;4.28;;;;;;;;;;5095919;28;20031;-70
2023/02/04 10:59:50;;;;;;;17.67;3.35;;;;;;;;;;5096087;28;20032;-70
2023/02/04 11:02:31;;;;;;;17.85;3.53;;;;;;;;;;5078388;28;20122;-69
2023/02/04 11:04:57;;;;;;;17.08;2.95;;;;;;;;;;5087474;28;20036;-70
2023/02/04 11:07:23;;;;;;;19.27;3.40;;;;;;;;;;5093501;28;20548;-69
2023/02/04 11:09:50;;;;;;;18.08;3.03;;;;;;;;;;5101593;28;20122;-69
2023/02/04 11:12:21;;;;;;;18.95;3.47;;;;;;;;;;5098750;28;20046;-70
2023/02/04 11:14:55;;;;;;;13.48;2.45;;;;;;;;;;5096912;28;20081;-70
2023/02/04 11:17:21;;;;;;;20.58;3.28;;;;;;;;;;5077479;28;20051;-71
2023/02/04 11:19:49;;;;;;;16.02;2.80;;;;;;;;;;5093272;28;20142;-71
2023/02/04 11:22:21;;;;;;;17.08;3.35;;;;;;;;;;5092271;28;20044;-70
2023/02/04 11:24:48;;;;;;;20.40;3.17;;;;;;;;;;5078043;28;20636;-70
2023/02/04 11:27:22;;;;;;;23.65;3.80;;;;;;;;;;5097896;28;20069;-71
2023/02/04 11:29:48;;;;;;;15.88;3.55;;;;;;;;;;5097793;28;20131;-70
2023/02/04 11:32:29;;;;;;;20.20;3.65;;;;;;;;;;5100727;28;20034;-69
2023/02/04 11:35:05;;;;;;;14.88;2.28;;;;;;;;;;5080730;28;20059;-69
2023/02/04 11:37:38;;;;;;;14.45;3.20;;;;;;;;;;5095108;28;20044;-70
2023/02/04 11:40:19;;;;;;;15.18;3.35;;;;;;;;;;5095141;28;20919;-70
2023/02/04 11:42:46;;;;;;;17.45;3.33;;;;;;;;;;5093902;28;20403;-70
2023/02/04 11:45:14;;;;;;;21.75;2.88;;;;;;;;;;5102367;28;20046;-70
2023/02/04 11:47:40;;;;;;;16.27;3.20;;;;;;;;;;5099881;28;20036;-71
2023/02/04 11:50:19;;;;;;;11.90;3.35;;;;;;;;;;5081728;28;20155;-71
2023/02/04 11:52:45;;;;;;;11.77;2.80;;;;;;;;;;5099280;28;20074;-70
2023/02/04 11:55:12;;;;;;;17.42;3.25;;;;;;;;;;5102596;28;20040;-71
2023/02/04 11:57:39;;;;;;;16.42;3.30;;;;;;;;;;5101373;28;20130;-70
2023/02/04 12:00:06;;;;;;;16.27;3.00;;;;;;;;;;5097676;28;20052;-69
2023/02/04 12:02:41;;;;;;;17.83;2.83;;;;;;;;;;5098560;28;20104;-70
2023/02/04 12:05:10;;;;;;;16.70;3.60;;;;;;;;;;5076599;28;20048;-71
2023/02/04 12:07:36;;;;;;;12.88;3.03;;;;;;;;;;5093814;28;20035;-71
2023/02/04 12:10:12;;;;;;;16.48;3.10;;;;;;;;;;5096288;28;20091;-70
2023/02/04 12:12:49;;;;;;;16.05;3.70;;;;;;;;;;5099059;28;20036;-77
2023/02/04 12:15:20;;;;;;;17.17;3.17;;;;;;;;;;5099379;28;20044;-67
2023/02/04 12:17:46;;;;;;;12.55;2.92;;;;;;;;;;5105064;28;20040;-67
2023/02/04 12:20:13;;;;;;;21.98;3.42;;;;;;;;;;5101510;28;20404;-68
2023/02/04 12:22:39;;;;;;;15.02;3.38;;;;;;;;;;5093978;28;20368;-68
2023/02/04 12:25:06;;;;;;;16.08;3.10;;;;;;;;;;5083282;28;20109;-69
2023/02/04 12:27:32;;;;;;;21.10;2.90;;;;;;;;;;5100500;28;20547;-69
2023/02/04 12:29:58;;;;;;;13.55;2.95;;;;;;;;;;5096770;28;20333;-69
2023/02/04 12:32:24;;;;;;;16.60;2.85;;;;;;;;;;5080253;28;20126;-69
2023/02/04 12:34:50;;;;;;;16.33;2.80;;;;;;;;;;5107338;28;20052;-69
2023/02/04 12:37:16;;;;;;;15.82;3.15;;;;;;;;;;5099861;28;20035;-69
2023/02/04 12:39:42;;;;;;;15.13;3.08;;;;;;;;;;5099055;28;20044;-69
2023/02/04 12:42:09;;;;;;;13.32;2.40;;;;;;;;;;5098066;28;20402;-69
2023/02/04 12:44:35;;;;;;;16.52;3.20;;;;;;;;;;5081510;28;20040;-69
2023/02/04 12:47:01;;;;;;;13.82;3.05;;;;;;;;;;5102751;28;20592;-69
2023/02/04 12:49:27;;;;;;;22.67;3.92;;;;;;;;;;5101641;28;20023;-69
2023/02/04 12:51:57;;;;;;;15.63;3.80;;;;;;;;;;5098422;28;20055;-69
2023/02/04 12:54:23;;;;;;;17.30;3.13;;;;;;;;;;5098894;28;20048;-69
2023/02/04 12:56:52;;;;;;;13.45;2.88;;;;;;;;;;5100478;28;20107;-70
2023/02/04 12:59:18;;;;;;;19.55;3.45;;;;;;;;;;5096880;28;20071;-72
2023/02/04 13:01:44;;;;;;;14.05;2.65;;;;;;;;;;5095217;28;20039;-69
2023/02/04 13:04:10;;;;;;;15.30;2.65;;;;;;;;;;5096789;28;20066;-69
2023/02/04 13:06:37;;;;;;;16.13;2.80;;;;;;;;;;5096544;28;20044;-69
2023/02/04 13:09:03;;;;;;;15.25;3.08;;;;;;;;;;5095389;28;20385;-69
2023/02/04 13:11:29;;;;;;;19.00;3.65;;;;;;;;;;5095119;28;20069;-69
2023/02/04 13:13:55;;;;;;;14.73;2.92;;;;;;;;;;5095557;28;20509;-69
2023/02/04 13:16:23;;;;;;;14.18;3.28;;;;;;;;;;5097470;28;20465;-70
2023/02/04 13:18:49;;;;;;;11.73;3.40;;;;;;;;;;5098545;28;20048;-70
2023/02/04 13:21:16;;;;;;;18.85;3.67;;;;;;;;;;5098448;28;20067;-69
2023/02/04 13:23:42;;;;;;;15.00;3.15;;;;;;;;;;5097918;28;20067;-69
2023/02/04 13:26:08;;;;;;;15.02;3.13;;;;;;;;;;5096887;28;20047;-69
2023/02/04 13:28:36;;;;;;;17.63;3.17;;;;;;;;;;5099213;28;20063;-69
2023/02/04 13:31:02;;;;;;;15.45;3.17;;;;;;;;;;5079361;28;20097;-69
2023/02/04 13:33:28;;;;;;;14.90;3.67;;;;;;;;;;5077475;28;20042;-69
2023/02/04 13:35:54;;;;;;;15.82;3.28;;;;;;;;;;5098777;28;20567;-69
2023/02/04 13:38:20;;;;;;;16.42;3.40;;;;;;;;;;5098984;28;20039;-69
2023/02/04 13:40:47;;;;;;;11.25;2.47;;;;;;;;;;5096408;28;20084;-69
2023/02/04 13:43:13;;;;;;;12.65;2.80;;;;;;;;;;5099818;28;20047;-69
2023/02/04 13:45:39;;;;;;;13.45;3.30;;;;;;;;;;5077206;28;20512;-69
2023/02/04 13:48:05;;;;;;;13.48;2.83;;;;;;;;;;5096111;28;20066;-69
2023/02/04 13:50:32;;;;;;;13.57;2.83;;;;;;;;;;5099902;28;20108;-69
2023/02/04 13:52:58;;;;;;;16.77;3.17;;;;;;;;;;5094458;28;20040;-69
2023/02/04 13:55:24;;;;;;;22.90;4.07;;;;;;;;;;5096173;28;20047;-69
2023/02/04 13:57:50;;;;;;;21.15;3.78;;;;;;;;;;5076595;28;20115;-69
2023/02/04 14:00:16;;;;;;;17.38;3.28;;;;;;;;;;5078876;28;20120;-69
2023/02/04 14:02:43;;;;;;;20.25;3.85;;;;;;;;;;5094992;28;20499;-69
2023/02/04 14:05:09;;;;;;;19.45;3.72;;;;;;;;;;5095806;28;20443;-69
2023/02/04 14:07:35;;;;;;;11.15;2.42;;;;;;;;;;5082419;28;20048;-69
2023/02/04 14:10:01;;;;;;;16.42;3.05;;;;;;;;;;5080082;28;20047;-69
2023/02/04 14:12:27;;;;;;;16.85;3.53;;;;;;;;;;5081691;28;20134;-70
2023/02/04 14:14:54;;;;;;;24.55;3.28;;;;;;;;;;5077870;28;20048;-69
2023/02/04 14:17:20;;;;;;;17.38;3.45;;;;;;;;;;5101003;28;20032;-69
2023/02/04 14:19:46;;;;;;;15.70;3.38;;;;;;;;;;5090727;28;20456;-69
2023/02/04 14:22:12;;;;;;;15.10;3.17;;;;;;;;;;5095281;28;20216;-69
2023/02/04 14:24:41;;;;;;;14.88;3.38;;;;;;;;;;5073081;28;20101;-69
2023/02/04 14:27:07;;;;;;;13.05;3.47;;;;;;;;;;5096011;28;20078;-69